LIPQ/TRS METAR and TAF weather

Enter ICAO airport designator
Station Type Date Time Source
LIPQ METAR 2022/01/25 04:50 UTC NOAA

LIPQ 250450Z AUTO 02003KT 9999 OVC044/// 02/M01 Q1034


Station Type Date Time Source
LIPQ Decoded METAR 2022/01/25 04:50 UTC NOAA

Ronchi Dei Legionari, Italy (LIPQ) 45-49N 013-29E 12M
Jan 24, 2022 - 11:50 PM EST / 2022.01.25 0450 UTC
Wind: from the NNE (020 degrees) at 3 MPH (3 KT):0
Visibility: greater than 7 mile(s):0
Sky conditions: overcast
Temperature: 35 F (2 C)
Dew Point: 30 F (-1 C)
Relative Humidity: 80%
Pressure (altimeter): 30.53 in. Hg (1034 hPa)
ob: LIPQ 250450Z AUTO 02003KT 9999 OVC044/// 02/M01 Q1034
cycle: 5

Station Type Date Time Source
LIPQ TAF 2022/01/24 18:21 UTC NOAA

TAF LIPQ 241700Z 2418/2518 VRB06KT 9999 SCT030

Example: see airport list